This is the latest recevied weather packets stored in our database for station/object Wangen. If no packets are shown the sender has not sent any weather packets the latest 10 day(s).
| Time | Temp. | Humidity | Pressure | Rain* | Wind** | Luminosity | Snow |
|---|---|---|---|---|---|---|---|
| 1778202131 | 8.33° C | 89% | 1014 hPa | 0 mm | - | - | - |
| 1778200330 | 8.33° C | 88% | 1014.1 hPa | 0 mm | - | - | - |
| 1778198529 | 8.89° C | 88% | 1014.1 hPa | 0 mm | - | - | - |
| 1778196729 | 9.44° C | 87% | 1014.4 hPa | 0 mm | - | - | - |
| 1778194935 | 9.44° C | 86% | 1014.6 hPa | 0 mm | - | - | - |
| 1778193130 | 10° C | 85% | 1014.7 hPa | 0 mm | - | - | - |
| 1778189531 | 11.11° C | 81% | 1014.6 hPa | 1.78 mm | - | - | - |
| 1778187730 | 11.67° C | 79% | 1014.6 hPa | 1.78 mm | - | - | - |
| 1778185929 | 12.22° C | 77% | 1014.6 hPa | 1.78 mm | - | - | - |
| 1778184129 | 12.78° C | 75% | 1014.5 hPa | 1.78 mm | - | - | - |
| 1778182330 | 13.33° C | 71% | 1014.1 hPa | 1.78 mm | - | - | - |
| 1778180532 | 13.89° C | 67% | 1013.9 hPa | 1.78 mm | - | - | - |
| 1778178730 | 14.44° C | 66% | 1013.5 hPa | 1.78 mm | - | - | - |
| 1778176930 | 15° C | 64% | 1013.3 hPa | 1.78 mm | - | - | - |
| 1778175130 | 15.56° C | 61% | 1013.1 hPa | 1.78 mm | - | - | - |
| 1778173330 | 16.67° C | 58% | 1013 hPa | 1.78 mm | - | - | - |
| 1778171530 | 16.67° C | 58% | 1013.1 hPa | 1.78 mm | - | - | - |
| 1778169731 | 16.67° C | 59% | 1013.1 hPa | 1.78 mm | - | - | - |
| 1778167931 | 16.67° C | 60% | 1013 hPa | 1.78 mm | - | - | - |
| 1778166130 | 17.78° C | 53% | 1012.9 hPa | 1.78 mm | - | - | - |
| 1778164332 | 16.67° C | 56% | 1013 hPa | 1.78 mm | - | - | - |
| 1778162530 | 16.67° C | 59% | 1013.1 hPa | 1.78 mm | - | - | - |
| 1778160730 | 16.11° C | 63% | 1013.3 hPa | 1.78 mm | - | - | - |
| 1778158930 | 15.56° C | 68% | 1013.4 hPa | 1.78 mm | - | - | - |
| 1778157130 | 14.44° C | 72% | 1013.4 hPa | 1.52 mm | - | - | - |
* Rain since midnight (hover to see other rain measurements)
** Current wind speed in m/s (hover to see current wind gust speed)